Mansfield Center, Connecticut
Current Conditions -  °F | °C
As of 11:05 AM on Tuesday 21 Oct 2014 (Local Time) from KIJD Reporting Station
Broken Clouds Broken Clouds  
Wind Chill: 58°   Ceiling: 9000
Heat Index: 58°   Visibility: 10mi
Dew Point: 48°   Wind: 0mph
Humidity: 70%   Direction: NA
Pressure: 29.93"   Gusts: NA
Location:  41.77°N, 72.2°W
Report Text: KIJD 211505Z AUTO 00000KT 10SM SCT023 BKN090 BKN110 14/09 A2993 RMK AO2 T01440089
Loading
Personal Weather Stations






























Interactive Weather Map
Tropical Storm Tracking
New forecast layout! Learn more

10-Day Weather Forecast

Advertisements
Track Severe Weather on mobile